Weather at Daytona Beach International Airport

Public forecast

Using degrees Fahrenheit for public forecast. Weather courtesy of forecast.io.

Current aviation weather report (METAR) for Daytona Beach International Airport

Retrieved 2021/09/27 05:53 UTC (52 minutes ago):

KDAB 270553Z 00000KT 10SM CLR 20/18 A3009 RMK AO2 SLP189 T02000178 10244 20194 58006

Aviation forecast (TAF) for Daytona Beach International Airport

Retrieved 2021/09/27 06:22 UTC (23 minutes ago):

TAF KDAB 270520Z 2706/2806 00000KT P6SM SKC FM271500 05008KT P6SM SCT035 FM280000 VRB03KT P6SM SKC